Data for 09/25/2018

Time Sea-Level Adjusted Pressure Absolute Pressure Temperature Relative Humidity Dew Point   
(mb) (inHg) (mb) (inHg) (C) (F) (%) (C) (F)
00:05 1024 30.24 853 25.19 6 42.8 71 1.1 34
00:10 1024 30.24 853 25.19 6 42.7 68 0.6 33.1
00:15 1024 30.24 853 25.19 6 42.8 69 0.8 33.4
00:20 1024 30.24 854 25.22 6.1 42.9 69 0.8 33.4
00:25 1024 30.24 854 25.22 6 42.7 72 1.4 34.5
00:30 1024 30.24 854 25.22 5.8 42.4 74 1.5 34.7
00:35 1024 30.24 854 25.22 5.6 42.1 76 1.8 35.2
00:40 1024 30.24 854 25.22 5.3 41.6 78 1.8 35.2
00:45 1024 30.24 854 25.22 5.1 41.2 80 1.9 35.5
00:50 1024 30.24 854 25.22 5 41 80 1.8 35.3
00:55 1024 30.24 854 25.22 5 41 79 1.6 35
01:00 1024 30.24 854 25.22 5 40.9 78 1.5 34.7
01:05 1024 30.24 854 25.22 4.9 40.9 80 1.7 35.1
01:10 1024 30.24 854 25.22 4.9 40.8 80 1.7 35
01:15 1024 30.24 854 25.22 4.8 40.7 79 1.4 34.6
01:20 1024 30.24 854 25.22 4.9 40.8 78 1.5 34.6
01:25 1024 30.24 854 25.22 4.9 40.9 80 1.7 35.1
01:30 1025 30.27 854 25.22 4.8 40.6 83 2.1 35.7
01:35 1025 30.27 854 25.22 4.6 40.3 84 2.1 35.8
01:40 1025 30.27 854 25.22 4.6 40.3 81 1.6 34.9
01:45 1025 30.27 854 25.22 4.8 40.7 79 1.5 34.7
01:50 1025 30.27 854 25.22 4.9 40.8 82 2 35.7
01:55 1025 30.27 854 25.22 4.8 40.6 81 1.7 35.1
02:00 1025 30.27 854 25.22 4.9 40.8 78 1.4 34.4
02:05 1025 30.27 854 25.22 4.9 40.8 79 1.6 35
02:10 1025 30.27 854 25.22 4.9 40.8 79 1.6 34.9
02:15 1025 30.27 854 25.22 5.1 41.1 76 1.1 34.1
02:20 1024 30.24 854 25.22 5.3 41.5 79 1.9 35.4
02:25 1024 30.24 854 25.22 5.1 41.1 81 2.1 35.7
02:30 1025 30.27 854 25.22 4.7 40.5 83 2.1 35.8
02:35 1025 30.27 854 25.22 4.5 40 85 2.1 35.9
02:40 1025 30.27 854 25.22 4.4 39.9 83 1.8 35.2
02:45 1025 30.27 854 25.22 4.5 40.1 82 1.7 35
02:50 1025 30.27 854 25.22 4.6 40.3 82 1.9 35.3
02:55 1025 30.27 854 25.22 4.5 40 83 1.9 35.4
03:00 1025 30.27 854 25.22 4.4 39.9 84 1.9 35.5
03:05 1025 30.27 854 25.22 4.3 39.8 85 2 35.6
03:10 1025 30.27 854 25.22 4.2 39.6 84 1.8 35.3
03:15 1025 30.27 854 25.22 4.3 39.7 83 1.6 34.8
03:20 1025 30.27 854 25.22 4.4 39.9 83 1.7 35.1
03:25 1025 30.27 854 25.22 4.3 39.8 82 1.5 34.7
03:30 1025 30.27 854 25.22 4.3 39.8 83 1.8 35.2
03:35 1025 30.27 854 25.22 4.2 39.6 83 1.7 35
03:40 1025 30.27 854 25.22 4.1 39.3 85 1.8 35.3
03:45 1025 30.27 854 25.22 3.9 39 85 1.7 35
03:50 1025 30.27 854 25.22 3.9 39.1 85 1.6 34.8
03:55 1025 30.27 854 25.22 4 39.1 85 1.6 34.9
04:00 1025 30.27 854 25.22 3.9 39.1 84 1.5 34.6
04:05 1025 30.27 854 25.22 3.9 39.1 83 1.3 34.4
04:10 1025 30.27 854 25.22 3.9 39 84 1.3 34.4
04:15 1025 30.27 854 25.22 3.8 38.8 84 1.3 34.3
04:20 1025 30.27 854 25.22 3.8 38.8 83 1.1 34
04:25 1025 30.27 854 25.22 3.8 38.9 83 1.1 34
04:30 1025 30.27 854 25.22 3.9 38.9 82 1.1 34
04:35 1025 30.27 854 25.22 3.8 38.9 83 1.1 34
04:40 1025 30.27 854 25.22 3.7 38.7 83 1.1 34
04:45 1025 30.27 854 25.22 3.6 38.5 83 1 33.8
04:50 1025 30.27 854 25.22 3.6 38.4 83 1 33.8
04:55 1025 30.27 854 25.22 3.7 38.7 79 0.4 32.8
05:00 1025 30.27 854 25.22 4 39.2 78 0.6 33.1
05:05 1025 30.27 854 25.22 4 39.1 79 0.7 33.3
05:10 1025 30.27 854 25.22 4 39.2 79 0.6 33.1
05:15 1025 30.27 854 25.22 4 39.2 79 0.7 33.3
05:20 1025 30.27 854 25.22 4.1 39.3 79 0.8 33.4
05:25 1025 30.27 855 25.25 4.1 39.3 80 0.8 33.5
05:30 1025 30.27 855 25.25 4.2 39.5 77 0.4 32.8
05:35 1025 30.27 855 25.25 4.5 40.1 75 0.5 32.9
05:40 1025 30.27 855 25.25 4.6 40.3 75 0.5 33
05:45 1025 30.27 855 25.25 4.7 40.5 76 0.8 33.5
05:50 1025 30.27 855 25.25 4.7 40.5 76 0.9 33.7
05:55 1025 30.27 855 25.25 4.7 40.4 78 1.2 34.2
06:00 1025 30.27 855 25.25 4.5 40.1 80 1.3 34.3
06:05 1025 30.27 855 25.25 4.3 39.7 80 1.2 34.1
06:10 1026 30.3 855 25.25 4.3 39.7 80 1.2 34.2
06:15 1026 30.3 855 25.25 4.3 39.8 81 1.3 34.4
06:20 1026 30.3 855 25.25 4.5 40.2 78 1.1 33.9
06:25 1026 30.3 855 25.25 4.7 40.5 79 1.4 34.5
06:30 1026 30.3 855 25.25 4.6 40.3 81 1.6 34.9
06:35 1026 30.3 855 25.25 4.4 39.9 80 1.2 34.1
06:40 1026 30.3 855 25.25 4.3 39.7 81 1.3 34.4
06:45 1026 30.3 855 25.25 4.3 39.7 79 1 33.8
06:50 1026 30.3 855 25.25 4.6 40.3 77 0.9 33.6
06:55 1026 30.3 855 25.25 4.9 40.7 73 0.5 32.8
07:00 1026 30.3 855 25.25 4.9 40.8 73 0.5 32.8
07:05 1026 30.3 855 25.25 4.9 40.9 73 0.5 32.9
07:10 1026 30.3 855 25.25 5 41.1 69 -0.1 31.9
07:15 1026 30.3 855 25.25 5.2 41.4 67 -0.3 31.4
07:20 1026 30.3 855 25.25 5.3 41.6 68 -0.1 31.9
07:25 1026 30.3 855 25.25 5.4 41.7 68 -0.1 31.7
07:30 1026 30.3 855 25.25 5.3 41.6 66 -0.5 31
07:35 1026 30.3 855 25.25 5.3 41.5 67 -0.4 31.3
07:40 1026 30.3 855 25.25 5.6 42 71 0.8 33.4
07:45 1026 30.3 855 25.25 5.6 42.2 73 1.2 34.1
07:50 1026 30.3 855 25.25 5.6 42 73 1.2 34.1
07:55 1026 30.3 855 25.25 5.5 42 72 0.8 33.5
08:00 1026 30.3 855 25.25 5.7 42.3 70 0.7 33.3
08:05 1026 30.3 855 25.25 5.6 42 71 0.8 33.4
08:10 1026 30.3 855 25.25 5.7 42.3 70 0.8 33.4
08:15 1026 30.3 855 25.25 5.4 41.7 72 0.7 33.3
08:20 1026 30.3 855 25.25 5.1 41.1 71 0.2 32.3
08:25 1026 30.3 855 25.25 5.6 42.1 67 -0.1 31.9
08:30 1026 30.3 855 25.25 6.3 43.3 65 0.2 32.4
08:35 1026 30.3 855 25.25 6.5 43.7 66 0.7 33.3
08:40 1026 30.3 855 25.25 6.2 43.2 66 0.3 32.6
08:45 1026 30.3 855 25.25 6.4 43.6 65 0.3 32.5
08:50 1026 30.3 856 25.28 6.8 44.2 63 0.4 32.7
08:55 1026 30.3 856 25.28 7.6 45.7 60 0.5 32.8
09:00 1026 30.3 856 25.28 8.2 46.7 58 0.5 32.9
09:05 1026 30.3 856 25.28 8.7 47.6 60 1.4 34.5
09:10 1026 30.3 856 25.28 9.1 48.4 58 1.2 34.2
09:15 1026 30.3 856 25.28 8.8 47.9 58 1.1 33.9
09:20 1026 30.3 856 25.28 8.9 48 60 1.5 34.7
09:25 1026 30.3 856 25.28 9.4 48.8 54 0.5 32.8
09:30 1026 30.3 856 25.28 9.7 49.5 50 -0.2 31.7
09:35 1026 30.3 856 25.28 9.4 48.9 52 0.1 32.1
09:40 1026 30.3 856 25.28 9.4 48.8 53 0.4 32.7
09:45 1026 30.3 856 25.28 8.8 47.9 54 0 32.1
09:50 1026 30.3 856 25.28 8.5 47.2 56 0.2 32.3
09:55 1027 30.33 856 25.28 8.9 48.1 50 -1 30.2
10:00 1027 30.33 856 25.28 9.5 49.1 49 -0.7 30.8
10:05 1027 30.33 856 25.28 9.9 49.9 47 -0.9 30.3
10:10 1027 30.33 856 25.28 9.2 48.6 50 -0.7 30.8
10:15 1027 30.33 856 25.28 9.2 48.5 51 -0.4 31.3
10:20 1027 30.33 856 25.28 10.2 50.4 47 -0.7 30.8
10:25 1027 30.33 856 25.28 10.2 50.4 49 0.1 32.2
10:30 1027 30.33 856 25.28 10.2 50.3 45 -1.2 29.8
10:35 1027 30.33 856 25.28 10.6 51.1 45 -0.8 30.6
10:40 1027 30.33 856 25.28 11 51.8 42 -1.3 29.6
10:45 1027 30.33 856 25.28 11.2 52.1 42 -1.2 29.8
10:50 1027 30.33 856 25.28 10.7 51.3 44 -1.1 30
10:55 1027 30.33 856 25.28 10.9 51.6 43 -1.1 30
11:00 1027 30.33 856 25.28 10.7 51.2 44 -0.9 30.3
11:05 1026 30.3 856 25.28 10.5 51 45 -0.7 30.7
11:10 1027 30.33 856 25.28 10.7 51.2 40 -2.2 28
11:15 1026 30.3 856 25.28 10.7 51.2 42 -1.7 29
11:20 1026 30.3 856 25.28 10.8 51.5 42 -1.7 29
11:25 1026 30.3 856 25.28 11.5 52.7 39 -1.9 28.6
11:30 1026 30.3 856 25.28 12.2 53.9 38 -1.6 29.1
11:35 1026 30.3 856 25.28 12.5 54.5 37 -1.8 28.8
11:40 1026 30.3 856 25.28 12.3 54.2 37 -2.1 28.3
11:45 1026 30.3 856 25.28 11.7 53 38 -2.2 28
11:50 1026 30.3 856 25.28 11.9 53.4 36 -2.7 27.1
11:55 1026 30.3 856 25.28 11.7 53.1 37 -2.4 27.6
12:00 1026 30.3 856 25.28 12.2 54 37 -2 28.4
12:05 1026 30.3 855 25.25 12.5 54.5 33 -3.4 25.9
12:10 1026 30.3 855 25.25 13.1 55.5 34 -2.5 27.5
12:15 1026 30.3 855 25.25 12.4 54.4 39 -0.9 30.3
12:20 1026 30.3 855 25.25 12.5 54.5 33 -3.3 26
12:25 1026 30.3 855 25.25 12.7 54.8 33 -3.2 26.2
12:30 1026 30.3 855 25.25 13.1 55.6 31 -3.6 25.5
12:35 1026 30.3 855 25.25 12.9 55.2 32 -3.4 25.9
12:40 1026 30.3 855 25.25 12.2 53.9 35 -2.6 27.3
12:45 1026 30.3 855 25.25 12.2 54 34 -3.2 26.2
12:50 1026 30.3 855 25.25 12.4 54.3 34 -3.1 26.4
12:55 1026 30.3 855 25.25 12.7 54.9 33 -3.2 26.2
13:00 1026 30.3 855 25.25 12.7 54.8 32 -3.4 26
13:05 1026 30.3 855 25.25 12.5 54.5 34 -3 26.6
13:10 1026 30.3 855 25.25 13 55.5 33 -3 26.7
13:15 1026 30.3 855 25.25 13 55.5 32 -3.1 26.4
13:20 1026 30.3 855 25.25 12.8 55 32 -3.5 25.7
13:25 1026 30.3 855 25.25 13.6 56.5 31 -3.1 26.4
13:30 1026 30.3 855 25.25 13.3 56 32 -3 26.7
13:35 1026 30.3 855 25.25 13.4 56.2 31 -3.3 26.1
13:40 1026 30.3 855 25.25 13.7 56.6 30 -3.5 25.7
13:45 1026 30.3 855 25.25 13.4 56.2 30 -3.6 25.6
13:50 1026 30.3 855 25.25 13.7 56.7 29 -3.9 25
13:55 1026 30.3 855 25.25 14.1 57.3 30 -3.4 26
14:00 1026 30.3 855 25.25 13.5 56.3 30 -3.6 25.5
14:05 1026 30.3 855 25.25 13.6 56.5 32 -2.8 27
14:10 1026 30.3 855 25.25 13.8 56.8 30 -3.5 25.6
14:15 1026 30.3 855 25.25 14 57.1 31 -3 26.7
14:20 1026 30.3 855 25.25 13.9 57.1 30 -3.5 25.7
14:25 1026 30.3 855 25.25 14.8 58.7 27 -3.8 25.2
14:30 1026 30.3 855 25.25 15.1 59.1 27 -3.7 25.3
14:35 1026 30.3 855 25.25 14.6 58.3 27 -4.1 24.7
14:40 1026 30.3 855 25.25 14.6 58.2 27 -4.1 24.7
14:45 1026 30.3 855 25.25 14 57.1 29 -3.8 25.2
14:50 1026 30.3 855 25.25 14 57.1 28 -4.2 24.4
14:55 1026 30.3 855 25.25 14.4 57.8 28 -4.1 24.7
15:00 1026 30.3 855 25.25 14.4 57.9 27 -4.1 24.6
15:05 1025 30.27 855 25.25 14.6 58.3 27 -4 24.9
15:10 1025 30.27 855 25.25 15.1 59.1 27 -3.9 24.9
15:15 1025 30.27 855 25.25 14.9 58.8 28 -3.4 25.9
15:20 1025 30.27 855 25.25 14.6 58.2 26 -4.5 23.8
15:25 1025 30.27 855 25.25 14.9 58.8 26 -4.4 24
15:30 1025 30.27 855 25.25 14.8 58.6 27 -3.8 25.2
15:35 1025 30.27 855 25.25 15 59.1 25 -4.6 23.7
15:40 1025 30.27 854 25.22 15.1 59.1 25 -4.5 23.9
15:45 1025 30.27 854 25.22 15 59 25 -4.9 23.2
15:50 1025 30.27 854 25.22 15.4 59.7 25 -4.7 23.6
15:55 1025 30.27 854 25.22 15.5 59.8 26 -3.8 25.2
16:00 1025 30.27 854 25.22 15.5 59.8 25 -4.3 24.2
16:05 1025 30.27 854 25.22 15.4 59.6 25 -4.7 23.6
16:10 1025 30.27 854 25.22 15.3 59.6 25 -4.8 23.4
16:15 1025 30.27 854 25.22 14.3 57.8 26 -4.9 23.2
16:20 1025 30.27 854 25.22 14.7 58.4 26 -4.5 23.9
16:25 1025 30.27 854 25.22 14.8 58.7 25 -5 23
16:30 1025 30.27 854 25.22 15 59.1 26 -4.3 24.2
16:35 1025 30.27 854 25.22 15.1 59.3 25 -4.6 23.8
16:40 1025 30.27 854 25.22 15.3 59.5 25 -4.3 24.2
16:45 1025 30.27 854 25.22 15 59 26 -4.4 24.1
16:50 1025 30.27 854 25.22 14.9 58.8 25 -4.9 23.2
16:55 1025 30.27 854 25.22 15.1 59.2 25 -4.7 23.6
17:00 1025 30.27 854 25.22 15.7 60.3 24 -4.8 23.3
17:05 1025 30.27 854 25.22 15.6 60.1 25 -4.2 24.4
17:10 1025 30.27 854 25.22 15.3 59.5 25 -4.6 23.8
17:15 1025 30.27 854 25.22 15.2 59.4 26 -4.2 24.5
17:20 1025 30.27 854 25.22 15.4 59.7 24 -4.7 23.5
17:25 1025 30.27 854 25.22 15.1 59.1 25 -4.5 23.9
17:30 1025 30.27 854 25.22 15.2 59.4 25 -4.6 23.7
17:35 1025 30.27 854 25.22 15.1 59.1 25 -4.5 23.9
17:40 1025 30.27 854 25.22 15 58.9 26 -4.4 24.1
17:45 1025 30.27 854 25.22 15 59 26 -4.3 24.2
17:50 1025 30.27 854 25.22 15.2 59.4 25 -4.5 23.9
17:55 1025 30.27 854 25.22 15.3 59.6 25 -4.3 24.3
18:00 1025 30.27 854 25.22 14.9 58.9 26 -4.3 24.3
18:05 1025 30.27 854 25.22 14.9 58.7 27 -4.1 24.6
18:10 1025 30.27 854 25.22 14.1 57.4 28 -3.9 25
18:15 1025 30.27 854 25.22 14.6 58.3 26 -4.6 23.7
18:20 1025 30.27 854 25.22 15 58.9 26 -4.1 24.6
18:25 1025 30.27 854 25.22 15 59.1 26 -4.4 24.2
18:30 1025 30.27 854 25.22 14.5 58.2 27 -4.3 24.3
18:35 1025 30.27 854 25.22 13.7 56.7 29 -3.9 25
18:40 1025 30.27 854 25.22 13.4 56 30 -3.7 25.3
18:45 1025 30.27 854 25.22 13 55.4 30 -4 24.9
18:50 1025 30.27 854 25.22 12.9 55.3 31 -3.9 25
18:55 1025 30.27 854 25.22 13.1 55.5 30 -4.1 24.6
19:00 1025 30.27 854 25.22 13 55.3 33 -3.1 26.5
19:05 1025 30.27 854 25.22 12.5 54.4 35 -2.7 27.2
19:10 1025 30.27 854 25.22 11.8 53.3 37 -2.3 27.9
19:15 1025 30.27 854 25.22 11.4 52.6 38 -2.2 28.1
19:20 1024 30.24 854 25.22 11.2 52.1 41 -1.5 29.4
19:25 1025 30.27 854 25.22 10.8 51.5 44 -0.9 30.4
19:30 1025 30.27 854 25.22 10.4 50.7 46 -0.8 30.6
19:35 1024 30.24 854 25.22 10 50 47 -0.8 30.6
19:40 1024 30.24 854 25.22 9.7 49.5 47 -0.9 30.3
19:45 1025 30.27 854 25.22 9.2 48.6 50 -0.8 30.6
19:50 1025 30.27 854 25.22 8.8 47.8 50 -0.9 30.3
19:55 1025 30.27 854 25.22 8.5 47.2 51 -1 30.3
20:00 1025 30.27 854 25.22 8.3 46.9 51 -1.1 29.9
20:05 1025 30.27 854 25.22 8.1 46.6 52 -1 30.2
20:10 1025 30.27 854 25.22 7.8 46.1 53 -1 30.2
20:15 1024 30.24 854 25.22 7.6 45.7 54 -1 30.2
20:20 1024 30.24 854 25.22 7.5 45.6 54 -1 30.1
20:25 1025 30.27 854 25.22 7.4 45.3 56 -0.9 30.5
20:30 1025 30.27 854 25.22 7.1 44.7 57 -0.8 30.6
20:35 1025 30.27 854 25.22 6.9 44.4 57 -1.1 30
20:40 1025 30.27 854 25.22 6.7 44.1 57 -1.2 29.9
20:45 1025 30.27 854 25.22 6.6 43.9 56 -1.6 29.2
20:50 1025 30.27 854 25.22 6.6 44 55 -1.7 29
20:55 1025 30.27 854 25.22 6.7 44.1 54 -1.9 28.5
21:00 1025 30.27 854 25.22 6.9 44.4 53 -2 28.4
21:05 1025 30.27 854 25.22 6.8 44.2 55 -1.6 29.1
21:10 1025 30.27 854 25.22 6.1 43.1 57 -1.6 29.1
21:15 1025 30.27 854 25.22 5.9 42.6 58 -1.8 28.8
21:20 1025 30.27 854 25.22 5.8 42.5 58 -1.7 29
21:25 1025 30.27 854 25.22 5.8 42.4 57 -2 28.3
21:30 1025 30.27 854 25.22 5.9 42.7 57 -1.9 28.6
21:35 1025 30.27 854 25.22 5.9 42.6 57 -1.9 28.5
21:40 1025 30.27 854 25.22 5.9 42.6 57 -2 28.4
21:45 1025 30.27 854 25.22 5.8 42.5 57 -2 28.4
21:50 1025 30.27 854 25.22 5.9 42.6 57 -2.1 28.3
21:55 1025 30.27 854 25.22 5.9 42.6 58 -1.8 28.8
22:00 1025 30.27 854 25.22 5.6 42.2 57 -2.1 28.2
22:05 1024 30.24 854 25.22 5.6 42.2 57 -2.3 27.8
22:10 1024 30.24 854 25.22 5.8 42.4 56 -2.2 28
22:15 1024 30.24 854 25.22 5.8 42.4 56 -2.2 28
22:20 1024 30.24 854 25.22 5.8 42.4 56 -2.4 27.7
22:25 1024 30.24 854 25.22 5.7 42.3 56 -2.2 28
22:30 1024 30.24 854 25.22 5.5 41.8 57 -2.3 27.9
22:35 1024 30.24 853 25.19 5.4 41.7 58 -2.3 27.9
22:40 1024 30.24 853 25.19 5.2 41.4 59 -2.2 28.1
22:45 1024 30.24 853 25.19 5.2 41.3 59 -2.2 28
22:50 1024 30.24 853 25.19 5.3 41.5 57 -2.4 27.6
22:55 1024 30.24 854 25.22 5.7 42.2 55 -2.7 27.1
23:00 1024 30.24 854 25.22 5.9 42.7 55 -2.4 27.6
23:05 1024 30.24 854 25.22 5.8 42.5 55 -2.4 27.6
23:10 1025 30.27 854 25.22 5.7 42.3 56 -2.4 27.7
23:15 1025 30.27 854 25.22 5.6 42.1 57 -2.3 27.9
23:20 1025 30.27 854 25.22 5.5 41.8 57 -2.3 27.9
23:25 1025 30.27 854 25.22 5.3 41.5 58 -2.3 27.9
23:30 1025 30.27 854 25.22 5.3 41.6 57 -2.5 27.4
23:35 1025 30.27 854 25.22 5.2 41.4 58 -2.5 27.5
23:40 1025 30.27 854 25.22 5.2 41.4 55 -3 26.6
23:45 1025 30.27 854 25.22 5.4 41.7 55 -3 26.7
23:50 1025 30.27 854 25.22 5.5 41.9 55 -2.9 26.8
23:55 1025 30.27 854 25.22 5.6 42 54 -2.9 26.8
24:00 1025 30.27 854 25.22 5.5 41.9 55 -2.7 27.2